createdAt,value
2016-08-14T00:00:13.323Z,960.84
2016-08-14T00:01:13.315Z,960.84
2016-08-14T00:02:13.307Z,960.85
2016-08-14T00:03:13.289Z,960.85
2016-08-14T00:04:13.292Z,960.87
2016-08-14T00:05:13.290Z,960.83
2016-08-14T00:06:13.280Z,960.83
2016-08-14T00:07:13.307Z,960.84
2016-08-14T00:08:13.272Z,960.82
2016-08-14T00:09:13.264Z,960.82
2016-08-14T00:10:13.256Z,960.77
2016-08-14T00:11:13.253Z,960.81
2016-08-14T00:12:13.248Z,960.79
2016-08-14T00:13:13.241Z,960.77
2016-08-14T00:14:13.256Z,960.78
2016-08-14T00:15:13.245Z,960.78
2016-08-14T00:16:13.232Z,960.78
2016-08-14T00:17:13.243Z,960.78
2016-08-14T00:18:13.235Z,960.82
2016-08-14T00:19:13.231Z,960.87
2016-08-14T00:20:13.217Z,960.89
2016-08-14T00:21:13.206Z,960.9
2016-08-14T00:22:13.208Z,960.91
2016-08-14T00:23:13.195Z,960.95
2016-08-14T00:24:13.191Z,960.94
2016-08-14T00:25:13.187Z,960.93
2016-08-14T00:26:13.197Z,960.97
2016-08-14T00:27:13.183Z,960.94
2016-08-14T00:28:13.182Z,960.92
2016-08-14T00:29:13.172Z,960.94
2016-08-14T00:30:13.179Z,960.97
2016-08-14T00:31:13.167Z,960.99
2016-08-14T00:32:13.164Z,960.99
2016-08-14T00:33:13.165Z,961.05
2016-08-14T00:34:13.155Z,961.05
2016-08-14T00:35:13.145Z,961.06
2016-08-14T00:36:13.138Z,961.04
2016-08-14T00:37:13.139Z,961.06
2016-08-14T00:38:13.143Z,961.01
2016-08-14T00:39:13.130Z,961.04
2016-08-14T00:40:13.118Z,961.03
2016-08-14T00:41:13.126Z,961.01
2016-08-14T00:42:13.101Z,961.01
2016-08-14T00:43:13.112Z,961.03
2016-08-14T00:44:13.134Z,961.02
2016-08-14T00:45:13.105Z,961.02
2016-08-14T00:46:13.087Z,961.01
2016-08-14T00:47:13.084Z,961.01
2016-08-14T00:48:13.081Z,961.01
2016-08-14T00:49:13.078Z,961.03
2016-08-14T00:50:13.071Z,960.97
2016-08-14T00:51:13.071Z,960.99
2016-08-14T00:52:13.069Z,961
2016-08-14T00:53:13.054Z,961.01
2016-08-14T00:54:13.132Z,960.99
2016-08-14T00:55:13.045Z,960.95
2016-08-14T00:56:13.039Z,960.97
2016-08-14T00:57:13.033Z,960.97
2016-08-14T00:58:13.028Z,960.95
2016-08-14T00:59:13.023Z,960.95
2016-08-14T01:00:13.032Z,960.9
2016-08-14T01:01:13.009Z,960.87
2016-08-14T01:02:12.999Z,960.88
2016-08-14T01:03:13.015Z,960.87
2016-08-14T01:04:13.001Z,960.88
2016-08-14T01:05:13.985Z,960.87
2016-08-14T01:06:12.986Z,960.9
2016-08-14T01:07:12.984Z,960.84
2016-08-14T01:08:12.982Z,960.86
2016-08-14T01:09:12.969Z,960.85
2016-08-14T01:10:12.966Z,960.88
2016-08-14T01:11:12.963Z,960.85
2016-08-14T01:12:12.956Z,960.86
2016-08-14T01:13:12.949Z,960.87
2016-08-14T01:14:12.942Z,960.84
2016-08-14T01:15:12.959Z,960.88
2016-08-14T01:16:12.939Z,960.89
2016-08-14T01:17:12.930Z,960.87
2016-08-14T01:18:12.928Z,960.85
2016-08-14T01:19:12.926Z,960.87
2016-08-14T01:20:12.919Z,960.86
2016-08-14T01:21:12.904Z,960.87
2016-08-14T01:22:12.908Z,960.82
2016-08-14T01:23:12.893Z,960.84
2016-08-14T01:24:12.906Z,960.86
2016-08-14T01:25:12.900Z,960.85
2016-08-14T01:26:12.882Z,960.85
2016-08-14T01:27:12.877Z,960.88
2016-08-14T01:28:12.873Z,960.86
2016-08-14T01:29:12.877Z,960.86
2016-08-14T01:30:12.868Z,960.82
2016-08-14T01:31:12.875Z,960.88
2016-08-14T01:32:12.861Z,960.82
2016-08-14T01:33:12.859Z,960.78
2016-08-14T01:34:12.852Z,960.81
2016-08-14T01:35:12.857Z,960.77
2016-08-14T01:36:12.837Z,960.74
2016-08-14T01:37:12.838Z,960.73
2016-08-14T01:38:12.849Z,960.7
2016-08-14T01:39:12.840Z,960.71
2016-08-14T01:40:12.832Z,960.69
2016-08-14T01:41:12.820Z,960.67
2016-08-14T01:42:12.830Z,960.68
2016-08-14T01:43:12.808Z,960.63
2016-08-14T01:44:12.802Z,960.63
2016-08-14T01:45:12.805Z,960.62
2016-08-14T01:46:12.794Z,960.59
2016-08-14T01:47:12.790Z,960.59
2016-08-14T01:48:12.783Z,960.6
2016-08-14T01:49:12.782Z,960.58
2016-08-14T01:50:12.823Z,960.57
2016-08-14T01:51:12.803Z,960.59
2016-08-14T01:52:12.768Z,960.59
2016-08-14T01:53:12.753Z,960.58
2016-08-14T01:54:12.747Z,960.55
2016-08-14T01:55:12.755Z,960.55
2016-08-14T01:56:12.736Z,960.51
2016-08-14T01:57:12.749Z,960.52
2016-08-14T01:58:12.736Z,960.49
2016-08-14T01:59:12.722Z,960.49
2016-08-14T02:00:12.725Z,960.51
2016-08-14T02:01:12.722Z,960.47
2016-08-14T02:02:12.717Z,960.46
2016-08-14T02:03:12.709Z,960.48
2016-08-14T02:04:12.718Z,960.47
2016-08-14T02:05:12.700Z,960.43
2016-08-14T02:06:12.693Z,960.49
2016-08-14T02:07:12.697Z,960.46
2016-08-14T02:08:12.706Z,960.42
2016-08-14T02:09:12.722Z,960.39
2016-08-14T02:10:12.677Z,960.4
2016-08-14T02:11:12.668Z,960.38
2016-08-14T02:12:12.655Z,960.36
2016-08-14T02:13:12.650Z,960.38
2016-08-14T02:14:12.657Z,960.37
2016-08-14T02:15:12.647Z,960.36
2016-08-14T02:16:12.633Z,960.38
2016-08-14T02:17:12.635Z,960.36
2016-08-14T02:18:12.636Z,960.36
2016-08-14T02:19:12.625Z,960.33
2016-08-14T02:20:12.618Z,960.34
2016-08-14T02:21:12.658Z,960.34
2016-08-14T02:22:12.627Z,960.36
2016-08-14T02:23:12.619Z,960.35
2016-08-14T02:24:12.607Z,960.33
2016-08-14T02:25:12.591Z,960.34
2016-08-14T02:26:12.587Z,960.35
2016-08-14T02:27:12.579Z,960.34
2016-08-14T02:28:12.573Z,960.32
2016-08-14T02:29:12.573Z,960.32
2016-08-14T02:30:12.570Z,960.3
2016-08-14T02:31:12.570Z,960.32
2016-08-14T02:32:12.557Z,960.32
2016-08-14T02:33:12.556Z,960.36
2016-08-14T02:34:12.544Z,960.36
2016-08-14T02:35:12.557Z,960.33
2016-08-14T02:36:12.542Z,960.32
2016-08-14T02:37:12.527Z,960.31
2016-08-14T02:38:12.532Z,960.36
2016-08-14T02:39:12.518Z,960.32
2016-08-14T02:40:12.511Z,960.33
2016-08-14T02:41:12.510Z,960.35
2016-08-14T02:42:12.503Z,960.28
2016-08-14T02:43:12.491Z,960.36
2016-08-14T02:44:12.490Z,960.35
2016-08-14T02:45:12.496Z,960.31
2016-08-14T02:46:12.491Z,960.25
2016-08-14T02:47:12.490Z,960.32
2016-08-14T02:48:12.475Z,960.35
2016-08-14T02:49:12.469Z,960.33
2016-08-14T02:50:12.468Z,960.33
2016-08-14T02:51:12.457Z,960.36
2016-08-14T02:52:12.447Z,960.34
2016-08-14T02:53:12.448Z,960.35
2016-08-14T02:54:12.447Z,960.35
2016-08-14T02:55:12.443Z,960.33
2016-08-14T02:56:12.423Z,960.35
2016-08-14T02:57:12.420Z,960.36
2016-08-14T02:58:12.421Z,960.4
2016-08-14T02:59:12.415Z,960.37
2016-08-14T03:00:12.399Z,960.38
2016-08-14T03:01:12.392Z,960.38
2016-08-14T03:02:12.396Z,960.38
2016-08-14T03:03:12.397Z,960.4
2016-08-14T03:04:12.373Z,960.35
2016-08-14T03:05:12.382Z,960.33
2016-08-14T03:06:12.369Z,960.35
2016-08-14T03:07:12.365Z,960.3
2016-08-14T03:08:12.370Z,960.33
2016-08-14T03:09:12.352Z,960.29
2016-08-14T03:10:12.347Z,960.31
2016-08-14T03:11:12.344Z,960.27
2016-08-14T03:12:12.334Z,960.28
2016-08-14T03:13:12.331Z,960.28
2016-08-14T03:14:12.322Z,960.35
2016-08-14T03:15:12.326Z,960.27
2016-08-14T03:16:12.314Z,960.31
2016-08-14T03:17:12.322Z,960.29
2016-08-14T03:18:12.309Z,960.3
2016-08-14T03:19:12.302Z,960.34
2016-08-14T03:20:12.299Z,960.26
2016-08-14T03:21:12.277Z,960.27
2016-08-14T03:22:12.272Z,960.27
2016-08-14T03:23:12.282Z,960.24
2016-08-14T03:24:12.273Z,960.19
2016-08-14T03:25:12.307Z,960.22
2016-08-14T03:26:12.262Z,960.21
2016-08-14T03:27:12.243Z,960.19
2016-08-14T03:28:12.242Z,960.21
2016-08-14T03:29:12.240Z,960.23
2016-08-14T03:30:12.236Z,960.23
2016-08-14T03:31:12.233Z,960.23
2016-08-14T03:32:12.212Z,960.26
2016-08-14T03:33:12.215Z,960.23
2016-08-14T03:34:12.210Z,960.19
2016-08-14T03:35:12.195Z,960.21
2016-08-14T03:36:12.192Z,960.21
2016-08-14T03:37:12.188Z,960.21
2016-08-14T03:38:12.189Z,960.21
2016-08-14T03:39:12.172Z,960.19
2016-08-14T03:40:12.198Z,960.16
2016-08-14T03:41:12.165Z,960.15
2016-08-14T03:42:12.161Z,960.15
2016-08-14T03:43:12.157Z,960.17
2016-08-14T03:44:12.147Z,960.12
2016-08-14T03:45:12.142Z,960.15
2016-08-14T03:46:12.135Z,960.15
2016-08-14T03:47:12.127Z,960.13
2016-08-14T03:48:12.130Z,960.13
2016-08-14T03:49:12.135Z,960.14
2016-08-14T03:50:12.106Z,960.15
2016-08-14T03:51:12.107Z,960.16
2016-08-14T03:52:12.096Z,960.13
2016-08-14T03:53:12.102Z,960.17
2016-08-14T03:54:12.085Z,960.19
2016-08-14T03:55:12.094Z,960.18
2016-08-14T03:56:12.081Z,960.22
2016-08-14T03:57:12.070Z,960.21
2016-08-14T03:58:12.067Z,960.21
2016-08-14T03:59:12.061Z,960.2
2016-08-14T04:00:12.052Z,960.22
2016-08-14T04:01:12.044Z,960.24
2016-08-14T04:02:12.043Z,960.23
2016-08-14T04:03:12.047Z,960.21
2016-08-14T04:04:12.035Z,960.25
2016-08-14T04:05:12.035Z,960.23
2016-08-14T04:06:12.014Z,960.2
2016-08-14T04:07:12.013Z,960.25
2016-08-14T04:08:12.006Z,960.21
2016-08-14T04:09:12.004Z,960.23
2016-08-14T04:10:11.995Z,960.22
2016-08-14T04:11:11.992Z,960.2
2016-08-14T04:12:11.994Z,960.2
2016-08-14T04:13:11.986Z,960.23
2016-08-14T04:14:11.968Z,960.18
2016-08-14T04:15:11.978Z,960.21
2016-08-14T04:16:11.952Z,960.18
2016-08-14T04:17:11.950Z,960.17
2016-08-14T04:18:11.959Z,960.19
2016-08-14T04:19:11.940Z,960.19
2016-08-14T04:20:11.934Z,960.24
2016-08-14T04:21:11.925Z,960.21
2016-08-14T04:22:11.932Z,960.2
2016-08-14T04:23:11.924Z,960.25
2016-08-14T04:24:11.909Z,960.23
2016-08-14T04:25:11.912Z,960.22
2016-08-14T04:26:11.901Z,960.22
2016-08-14T04:27:11.892Z,960.23
2016-08-14T04:28:11.904Z,960.23
2016-08-14T04:29:11.881Z,960.22
2016-08-14T04:30:11.880Z,960.27
2016-08-14T04:31:11.879Z,960.23
2016-08-14T04:32:11.906Z,960.26
2016-08-14T04:33:11.858Z,960.27
2016-08-14T04:34:11.846Z,960.28
2016-08-14T04:35:11.843Z,960.3
2016-08-14T04:36:11.848Z,960.33
2016-08-14T04:37:11.834Z,960.35
2016-08-14T04:38:11.828Z,960.36
2016-08-14T04:39:11.820Z,960.39
2016-08-14T04:40:11.818Z,960.45
2016-08-14T04:41:11.808Z,960.41
2016-08-14T04:42:11.795Z,960.42
2016-08-14T04:43:11.796Z,960.44
2016-08-14T04:44:11.785Z,960.45
2016-08-14T04:45:11.786Z,960.47
2016-08-14T04:46:11.784Z,960.44
2016-08-14T04:47:11.785Z,960.45
2016-08-14T04:48:11.762Z,960.46
2016-08-14T04:49:11.761Z,960.48
2016-08-14T04:50:11.753Z,960.45
2016-08-14T04:51:11.755Z,960.47
2016-08-14T04:52:11.759Z,960.49
2016-08-14T04:53:11.736Z,960.5
2016-08-14T04:54:11.730Z,960.5
2016-08-14T04:55:11.728Z,960.51
2016-08-14T04:56:11.733Z,960.5
2016-08-14T04:57:11.716Z,960.48
2016-08-14T04:58:11.707Z,960.49
2016-08-14T04:59:11.710Z,960.5
2016-08-14T05:00:11.704Z,960.52
2016-08-14T05:01:11.688Z,960.51
2016-08-14T05:02:11.681Z,960.56
2016-08-14T05:03:11.673Z,960.54
2016-08-14T05:04:11.681Z,960.53
2016-08-14T05:05:11.665Z,960.56
2016-08-14T05:06:11.666Z,960.52
2016-08-14T05:07:11.653Z,960.55
2016-08-14T05:08:11.648Z,960.52
2016-08-14T05:09:11.649Z,960.5
2016-08-14T05:10:11.654Z,960.5
2016-08-14T05:11:11.628Z,960.49
2016-08-14T05:12:11.621Z,960.54
2016-08-14T05:13:11.623Z,960.51
2016-08-14T05:14:11.627Z,960.5
2016-08-14T05:15:11.609Z,960.5
2016-08-14T05:16:11.603Z,960.49
2016-08-14T05:17:11.596Z,960.55
2016-08-14T05:18:11.596Z,960.54
2016-08-14T05:19:11.586Z,960.52
2016-08-14T05:20:11.585Z,960.58
2016-08-14T05:21:11.575Z,960.6
2016-08-14T05:22:11.574Z,960.62
2016-08-14T05:23:11.585Z,960.6
2016-08-14T05:24:11.557Z,960.57
2016-08-14T05:25:11.562Z,960.57
2016-08-14T05:26:11.554Z,960.61
2016-08-14T05:27:11.552Z,960.65
2016-08-14T05:28:11.544Z,960.63
2016-08-14T05:29:11.531Z,960.64
2016-08-14T05:30:11.537Z,960.64
2016-08-14T05:31:11.536Z,960.62
2016-08-14T05:32:11.571Z,960.63
2016-08-14T05:33:11.515Z,960.63
2016-08-14T05:34:11.507Z,960.61
2016-08-14T05:35:11.511Z,960.63
2016-08-14T05:36:11.523Z,960.66
2016-08-14T05:37:11.502Z,960.64
2016-08-14T05:38:11.488Z,960.61
2016-08-14T05:39:11.490Z,960.66
2016-08-14T05:40:11.476Z,960.66
2016-08-14T05:41:11.476Z,960.71
2016-08-14T05:42:11.472Z,960.71
2016-08-14T05:43:11.464Z,960.71
2016-08-14T05:44:11.456Z,960.68
2016-08-14T05:45:11.474Z,960.68
2016-08-14T05:46:11.452Z,960.73
2016-08-14T05:47:11.450Z,960.64
2016-08-14T05:48:11.450Z,960.69
2016-08-14T05:49:11.444Z,960.7
2016-08-14T05:50:11.482Z,960.73
2016-08-14T05:51:11.433Z,960.7
2016-08-14T05:52:11.495Z,960.69
2016-08-14T05:53:11.528Z,960.69
2016-08-14T05:54:11.437Z,960.69
2016-08-14T05:55:11.435Z,960.73
2016-08-14T05:56:11.417Z,960.72
2016-08-14T05:57:11.413Z,960.7
2016-08-14T05:58:11.391Z,960.7
2016-08-14T05:59:11.395Z,960.69
2016-08-14T06:00:11.381Z,960.74
2016-08-14T06:01:11.387Z,960.68
2016-08-14T06:02:11.388Z,960.74
2016-08-14T06:03:11.379Z,960.77
2016-08-14T06:04:11.383Z,960.76
2016-08-14T06:05:11.377Z,960.77
2016-08-14T06:06:11.367Z,960.74
2016-08-14T06:07:11.365Z,960.8
2016-08-14T06:08:11.362Z,960.79
2016-08-14T06:09:11.356Z,960.84
2016-08-14T06:10:11.356Z,960.82
2016-08-14T06:11:11.349Z,960.82
2016-08-14T06:12:11.344Z,960.85
2016-08-14T06:13:11.335Z,960.81
2016-08-14T06:14:11.337Z,960.85
2016-08-14T06:15:11.322Z,960.8
2016-08-14T06:16:11.318Z,960.85
2016-08-14T06:17:11.314Z,960.86
2016-08-14T06:18:11.315Z,960.85
2016-08-14T06:19:11.310Z,960.85
2016-08-14T06:20:11.313Z,960.83
2016-08-14T06:21:11.322Z,960.87
2016-08-14T06:22:11.304Z,960.86
2016-08-14T06:23:11.356Z,960.92
2016-08-14T06:24:11.294Z,960.85
2016-08-14T06:25:11.342Z,960.85
2016-08-14T06:26:11.283Z,960.87
2016-08-14T06:27:11.285Z,960.89
2016-08-14T06:28:11.284Z,960.86
2016-08-14T06:29:11.279Z,960.87
2016-08-14T06:30:11.286Z,960.87
2016-08-14T06:31:11.288Z,960.84
2016-08-14T06:32:11.279Z,960.82
2016-08-14T06:33:11.260Z,960.85
2016-08-14T06:34:11.262Z,960.83
2016-08-14T06:35:11.266Z,960.82
2016-08-14T06:36:11.257Z,960.79
2016-08-14T06:37:11.249Z,960.79
2016-08-14T06:38:11.253Z,960.79
2016-08-14T06:39:11.242Z,960.79
2016-08-14T06:40:11.242Z,960.8
2016-08-14T06:41:11.244Z,960.78
2016-08-14T06:42:11.240Z,960.75
2016-08-14T06:43:11.239Z,960.78
2016-08-14T06:44:11.228Z,960.77
2016-08-14T06:45:11.223Z,960.78
2016-08-14T06:46:11.218Z,960.81
2016-08-14T06:47:11.219Z,960.76
2016-08-14T06:48:11.227Z,960.79
2016-08-14T06:49:11.214Z,960.77
2016-08-14T06:50:11.226Z,960.76
2016-08-14T06:51:11.890Z,960.83
2016-08-14T06:52:12.716Z,960.83
2016-08-14T06:53:12.130Z,960.84
2016-08-14T06:56:11.211Z,960.86
2016-08-14T06:57:11.194Z,960.86
2016-08-14T06:58:11.199Z,960.92
2016-08-14T06:59:11.191Z,960.88
2016-08-14T07:00:11.185Z,960.86
2016-08-14T07:01:11.185Z,960.82
2016-08-14T07:02:11.190Z,960.84
2016-08-14T07:03:11.193Z,960.91
2016-08-14T07:04:11.180Z,960.9
2016-08-14T07:05:11.172Z,960.93
2016-08-14T07:06:11.176Z,960.92
2016-08-14T07:07:11.182Z,960.96
2016-08-14T07:08:11.168Z,960.9
2016-08-14T07:09:11.170Z,960.88
2016-08-14T07:10:11.169Z,960.86
2016-08-14T07:11:11.170Z,960.9
2016-08-14T07:12:11.167Z,960.86
2016-08-14T07:13:11.254Z,960.83
2016-08-14T07:14:11.179Z,960.82
2016-08-14T07:15:11.163Z,960.81
2016-08-14T07:16:11.163Z,960.78
2016-08-14T07:17:11.171Z,960.81
2016-08-14T07:18:11.172Z,960.87
2016-08-14T07:19:11.169Z,960.88
2016-08-14T07:20:11.170Z,960.84
2016-08-14T07:21:11.163Z,960.86
2016-08-14T07:22:11.178Z,960.86
2016-08-14T07:23:11.170Z,960.84
2016-08-14T07:24:11.165Z,960.8
2016-08-14T07:25:11.169Z,960.82
2016-08-14T07:26:11.169Z,960.81
2016-08-14T07:27:11.174Z,960.79
2016-08-14T07:28:11.182Z,960.78
2016-08-14T07:29:11.176Z,960.76
2016-08-14T07:30:11.174Z,960.78
2016-08-14T07:31:11.173Z,960.81
2016-08-14T07:32:11.172Z,960.79
2016-08-14T07:33:11.172Z,960.77
2016-08-14T07:34:11.178Z,960.77
2016-08-14T07:35:11.177Z,960.83
2016-08-14T07:36:11.179Z,960.78
2016-08-14T07:37:11.185Z,960.82
2016-08-14T07:38:11.176Z,960.8
2016-08-14T07:39:11.195Z,960.8
2016-08-14T07:40:11.204Z,960.78
2016-08-14T07:41:11.194Z,960.8
2016-08-14T07:42:11.197Z,960.78
2016-08-14T07:43:11.191Z,960.81
2016-08-14T07:44:11.187Z,960.76
2016-08-14T07:45:11.186Z,960.76
2016-08-14T07:46:11.195Z,960.77
2016-08-14T07:47:11.197Z,960.8
2016-08-14T07:48:11.200Z,960.8
2016-08-14T07:49:11.191Z,960.79
2016-08-14T07:50:11.200Z,960.78
2016-08-14T07:51:11.195Z,960.79
2016-08-14T07:52:11.203Z,960.76
2016-08-14T07:53:11.198Z,960.78
2016-08-14T07:54:11.203Z,960.75
2016-08-14T07:55:11.196Z,960.66
2016-08-14T07:56:11.203Z,960.68
2016-08-14T07:57:11.193Z,960.66
2016-08-14T07:58:11.208Z,960.7
2016-08-14T07:59:11.200Z,960.72
2016-08-14T08:00:11.206Z,960.72
2016-08-14T08:01:11.203Z,960.74
2016-08-14T08:02:11.200Z,960.72
2016-08-14T08:03:11.209Z,960.71
2016-08-14T08:04:11.207Z,960.7
2016-08-14T08:05:11.205Z,960.7
2016-08-14T08:06:11.201Z,960.67
2016-08-14T08:07:11.205Z,960.68
2016-08-14T08:08:11.204Z,960.69
2016-08-14T08:09:11.205Z,960.7
2016-08-14T08:10:11.223Z,960.69
2016-08-14T08:11:11.199Z,960.69
2016-08-14T08:12:11.210Z,960.68
2016-08-14T08:13:11.205Z,960.66
2016-08-14T08:14:11.268Z,960.66
2016-08-14T08:15:11.200Z,960.68
2016-08-14T08:16:11.207Z,960.65
2016-08-14T08:17:11.242Z,960.66
2016-08-14T08:18:11.219Z,960.67
2016-08-14T08:19:11.212Z,960.7
2016-08-14T08:20:11.202Z,960.69
2016-08-14T08:21:11.217Z,960.73
2016-08-14T08:22:11.208Z,960.75
2016-08-14T08:23:11.211Z,960.75
2016-08-14T08:24:11.217Z,960.73
2016-08-14T08:25:11.212Z,960.77
2016-08-14T08:26:11.226Z,960.75
2016-08-14T08:27:11.221Z,960.71
2016-08-14T08:28:11.281Z,960.74
2016-08-14T08:29:11.223Z,960.76
2016-08-14T08:30:11.211Z,960.8
2016-08-14T08:31:11.214Z,960.78
2016-08-14T08:32:11.208Z,960.78
2016-08-14T08:33:11.212Z,960.8
2016-08-14T08:34:11.212Z,960.78
2016-08-14T08:35:11.227Z,960.76
2016-08-14T08:36:11.265Z,960.75
2016-08-14T08:37:11.212Z,960.78
2016-08-14T08:38:11.224Z,960.81
2016-08-14T08:39:11.233Z,960.8
2016-08-14T08:40:11.227Z,960.78
2016-08-14T08:41:11.221Z,960.75
2016-08-14T08:42:11.234Z,960.76
2016-08-14T08:43:11.238Z,960.77
2016-08-14T08:44:11.235Z,960.77
2016-08-14T08:45:11.236Z,960.74
2016-08-14T08:46:11.235Z,960.75
2016-08-14T08:47:11.226Z,960.76
2016-08-14T08:48:11.241Z,960.8
2016-08-14T08:49:11.233Z,960.78
2016-08-14T08:50:11.236Z,960.79
2016-08-14T08:51:11.241Z,960.8
2016-08-14T08:52:11.241Z,960.77
2016-08-14T08:53:11.230Z,960.78
2016-08-14T08:54:11.244Z,960.79
2016-08-14T08:55:11.245Z,960.77
2016-08-14T08:56:11.240Z,960.78
2016-08-14T08:57:11.246Z,960.73
2016-08-14T08:58:11.251Z,960.71
2016-08-14T08:59:11.245Z,960.71
2016-08-14T09:00:11.247Z,960.75
2016-08-14T09:01:11.251Z,960.79
2016-08-14T09:02:11.249Z,960.86
2016-08-14T09:03:11.249Z,960.78
2016-08-14T09:04:11.258Z,960.84
2016-08-14T09:05:11.251Z,960.78
2016-08-14T09:06:11.257Z,960.81
2016-08-14T09:07:11.259Z,960.81
2016-08-14T09:08:11.254Z,960.79
2016-08-14T09:09:11.265Z,960.84
2016-08-14T09:10:11.281Z,960.83
2016-08-14T09:11:11.272Z,960.87
2016-08-14T09:12:11.261Z,960.84
2016-08-14T09:13:11.253Z,960.86
2016-08-14T09:14:11.260Z,960.82
2016-08-14T09:15:11.256Z,960.84
2016-08-14T09:16:11.267Z,960.83
2016-08-14T09:17:11.262Z,960.85
2016-08-14T09:18:11.262Z,960.83
2016-08-14T09:19:11.263Z,960.83
2016-08-14T09:20:11.271Z,960.82
2016-08-14T09:21:11.270Z,960.79
2016-08-14T09:22:11.322Z,960.8
2016-08-14T09:23:11.270Z,960.85
2016-08-14T09:24:11.273Z,960.84
2016-08-14T09:25:11.275Z,960.82
2016-08-14T09:26:11.290Z,960.84
2016-08-14T09:27:11.278Z,960.8
2016-08-14T09:28:11.282Z,960.79
2016-08-14T09:29:11.289Z,960.81
2016-08-14T09:30:11.273Z,960.74
2016-08-14T09:31:11.282Z,960.8
2016-08-14T09:32:11.282Z,960.75
2016-08-14T09:33:11.304Z,960.8
2016-08-14T09:34:11.296Z,960.85
2016-08-14T09:35:11.287Z,960.85
2016-08-14T09:36:11.286Z,960.88
2016-08-14T09:37:11.286Z,960.83
2016-08-14T09:38:11.287Z,960.88
2016-08-14T09:39:11.291Z,960.89
2016-08-14T09:40:11.286Z,960.88
2016-08-14T09:41:11.288Z,960.86
2016-08-14T09:42:11.288Z,960.89
2016-08-14T09:43:11.289Z,960.89
2016-08-14T09:44:11.298Z,960.92
2016-08-14T09:45:11.302Z,960.89
2016-08-14T09:46:11.308Z,960.88
2016-08-14T09:47:11.294Z,960.88
2016-08-14T09:48:11.311Z,960.86
2016-08-14T09:49:11.295Z,960.94
2016-08-14T09:50:11.304Z,960.92
2016-08-14T09:51:11.299Z,960.9
2016-08-14T09:52:11.297Z,960.93
2016-08-14T09:53:11.311Z,960.86
2016-08-14T09:54:11.310Z,960.87
2016-08-14T09:55:11.302Z,960.89
2016-08-14T09:56:11.311Z,960.91
2016-08-14T09:57:11.312Z,960.91
2016-08-14T09:58:11.322Z,960.89
2016-08-14T09:59:11.313Z,960.91
2016-08-14T10:00:11.333Z,960.91
2016-08-14T10:01:11.330Z,960.93
2016-08-14T10:02:11.339Z,960.91
2016-08-14T10:03:11.334Z,960.94
2016-08-14T10:04:11.330Z,960.89
2016-08-14T10:05:11.324Z,960.91
2016-08-14T10:06:11.319Z,960.9
2016-08-14T10:07:11.331Z,960.89
2016-08-14T10:08:11.334Z,960.88
2016-08-14T10:09:11.350Z,960.92
2016-08-14T10:10:11.327Z,960.88
2016-08-14T10:11:11.332Z,960.9
2016-08-14T10:12:11.331Z,960.84
2016-08-14T10:13:11.339Z,960.88
2016-08-14T10:14:11.337Z,960.91
2016-08-14T10:15:11.336Z,960.95
2016-08-14T10:16:11.346Z,960.91
2016-08-14T10:17:11.338Z,960.89
2016-08-14T10:18:11.355Z,960.91
2016-08-14T10:19:11.347Z,960.9
2016-08-14T10:20:11.388Z,960.9
2016-08-14T10:21:11.349Z,960.87
2016-08-14T10:22:11.351Z,960.86
2016-08-14T10:23:11.361Z,960.8
2016-08-14T10:24:11.359Z,960.83
2016-08-14T10:25:11.357Z,960.83
2016-08-14T10:26:11.359Z,960.78
2016-08-14T10:27:11.366Z,960.8
2016-08-14T10:28:11.403Z,960.81
2016-08-14T10:29:11.369Z,960.8
2016-08-14T10:30:11.366Z,960.75
2016-08-14T10:31:11.369Z,960.74
2016-08-14T10:32:11.372Z,960.77
2016-08-14T10:33:11.375Z,960.74
2016-08-14T10:34:11.374Z,960.76
2016-08-14T10:35:11.376Z,960.76
2016-08-14T10:36:11.382Z,960.75
2016-08-14T10:37:11.380Z,960.76
2016-08-14T10:38:11.384Z,960.72
2016-08-14T10:39:11.386Z,960.74
2016-08-14T10:40:11.388Z,960.68
2016-08-14T10:41:11.396Z,960.7
2016-08-14T10:42:11.401Z,960.66
2016-08-14T10:43:11.395Z,960.63
2016-08-14T10:44:11.401Z,960.67
2016-08-14T10:45:11.410Z,960.66
2016-08-14T10:46:11.409Z,960.69
2016-08-14T10:47:11.398Z,960.63
2016-08-14T10:48:11.422Z,960.62
2016-08-14T10:49:11.408Z,960.67
2016-08-14T10:50:11.404Z,960.71
2016-08-14T10:51:11.406Z,960.68
2016-08-14T10:52:11.410Z,960.65
2016-08-14T10:53:11.413Z,960.67
2016-08-14T10:54:11.416Z,960.71
2016-08-14T10:55:11.414Z,960.71
2016-08-14T10:56:11.418Z,960.68
2016-08-14T10:57:11.423Z,960.65
2016-08-14T10:58:11.428Z,960.68
2016-08-14T10:59:11.427Z,960.67
2016-08-14T11:00:11.438Z,960.64
2016-08-14T11:01:11.426Z,960.65
2016-08-14T11:02:11.440Z,960.62
2016-08-14T11:03:11.440Z,960.61
2016-08-14T11:04:11.459Z,960.65
2016-08-14T11:05:11.442Z,960.67
2016-08-14T11:06:11.486Z,960.66
2016-08-14T11:07:11.444Z,960.66
2016-08-14T11:08:11.444Z,960.63
2016-08-14T11:09:11.442Z,960.64
2016-08-14T11:10:11.449Z,960.61
2016-08-14T11:11:11.453Z,960.63
2016-08-14T11:12:11.452Z,960.65
2016-08-14T11:13:11.454Z,960.65
2016-08-14T11:14:11.507Z,960.65
2016-08-14T11:15:11.457Z,960.58
2016-08-14T11:16:11.466Z,960.63
2016-08-14T11:17:11.460Z,960.61
2016-08-14T11:18:11.463Z,960.57
2016-08-14T11:19:11.470Z,960.56
2016-08-14T11:20:11.475Z,960.56
2016-08-14T11:21:11.471Z,960.54
2016-08-14T11:22:11.471Z,960.57
2016-08-14T11:23:11.492Z,960.54
2016-08-14T11:24:11.482Z,960.58
2016-08-14T11:25:11.490Z,960.59
2016-08-14T11:26:11.499Z,960.61
2016-08-14T11:27:11.503Z,960.6
2016-08-14T11:28:11.489Z,960.58
2016-08-14T11:29:11.494Z,960.54
2016-08-14T11:30:11.529Z,960.52
2016-08-14T11:31:11.498Z,960.49
2016-08-14T11:32:11.504Z,960.47
2016-08-14T11:33:11.493Z,960.49
2016-08-14T11:34:11.497Z,960.5
2016-08-14T11:35:11.499Z,960.44
2016-08-14T11:36:11.523Z,960.44
2016-08-14T11:37:11.516Z,960.45
2016-08-14T11:38:11.510Z,960.45
2016-08-14T11:39:11.516Z,960.43
2016-08-14T11:40:11.528Z,960.5
2016-08-14T11:41:11.516Z,960.47
2016-08-14T11:42:11.563Z,960.51
2016-08-14T11:43:11.522Z,960.5
2016-08-14T11:44:11.529Z,960.48
2016-08-14T11:45:11.530Z,960.42
2016-08-14T11:46:11.531Z,960.41
2016-08-14T11:47:11.541Z,960.4
2016-08-14T11:48:11.537Z,960.42
2016-08-14T11:49:11.532Z,960.45
2016-08-14T11:50:11.583Z,960.36
2016-08-14T11:51:11.547Z,960.4
2016-08-14T11:52:11.546Z,960.4
2016-08-14T11:53:11.550Z,960.42
2016-08-14T11:54:11.553Z,960.37
2016-08-14T11:55:11.556Z,960.42
2016-08-14T11:56:11.557Z,960.41
2016-08-14T11:57:11.558Z,960.43
2016-08-14T11:58:11.554Z,960.43
2016-08-14T11:59:11.565Z,960.43
2016-08-14T12:00:11.563Z,960.39
2016-08-14T12:01:11.567Z,960.4
2016-08-14T12:02:11.570Z,960.42
2016-08-14T12:03:11.576Z,960.4
2016-08-14T12:04:11.571Z,960.39
2016-08-14T12:05:11.582Z,960.39
2016-08-14T12:06:11.571Z,960.39
2016-08-14T12:07:11.578Z,960.36
2016-08-14T12:08:11.576Z,960.41
2016-08-14T12:09:11.580Z,960.41
2016-08-14T12:10:11.591Z,960.37
2016-08-14T12:11:11.583Z,960.38
2016-08-14T12:12:11.623Z,960.36
2016-08-14T12:13:11.680Z,960.37
2016-08-14T12:14:11.651Z,960.35
2016-08-14T12:15:11.591Z,960.36
2016-08-14T12:16:11.595Z,960.37
2016-08-14T12:17:11.598Z,960.36
2016-08-14T12:18:11.597Z,960.32
2016-08-14T12:19:11.600Z,960.38
2016-08-14T12:20:11.604Z,960.4
2016-08-14T12:21:11.610Z,960.33
2016-08-14T12:22:11.604Z,960.33
2016-08-14T12:23:11.620Z,960.29
2016-08-14T12:24:11.613Z,960.25
2016-08-14T12:25:11.625Z,960.24
2016-08-14T12:26:11.628Z,960.34
2016-08-14T12:27:11.628Z,960.3
2016-08-14T12:28:11.620Z,960.32
2016-08-14T12:29:11.623Z,960.34
2016-08-14T12:30:11.629Z,960.31
2016-08-14T12:31:11.638Z,960.35
2016-08-14T12:34:11.647Z,960.36
2016-08-14T12:35:11.644Z,960.37